sensor_id;sensor_type;location;lat;lon;timestamp;temperature;humidity
21193;DHT22;10754;51.106;7.164;2023-02-15T00:01:44;9.50;1.00
21193;DHT22;10754;51.106;7.164;2023-02-15T00:04:13;9.50;1.00
21193;DHT22;10754;51.106;7.164;2023-02-15T00:06:39;9.50;1.00
21193;DHT22;10754;51.106;7.164;2023-02-15T00:09:05;9.40;1.00
21193;DHT22;10754;51.106;7.164;2023-02-15T00:11:30;9.40;1.00
21193;DHT22;10754;51.106;7.164;2023-02-15T00:14:17;9.30;1.00
21193;DHT22;10754;51.106;7.164;2023-02-15T00:16:44;9.30;1.00
21193;DHT22;10754;51.106;7.164;2023-02-15T00:19:11;9.30;1.00
21193;DHT22;10754;51.106;7.164;2023-02-15T00:21:38;9.30;1.00
21193;DHT22;10754;51.106;7.164;2023-02-15T00:24:05;9.40;1.00
21193;DHT22;10754;51.106;7.164;2023-02-15T00:26:31;9.20;1.00
21193;DHT22;10754;51.106;7.164;2023-02-15T00:28:58;9.10;1.00
21193;DHT22;10754;51.106;7.164;2023-02-15T00:31:24;9.00;1.00
21193;DHT22;10754;51.106;7.164;2023-02-15T00:33:50;9.10;1.00
21193;DHT22;10754;51.106;7.164;2023-02-15T00:36:16;9.10;1.00
21193;DHT22;10754;51.106;7.164;2023-02-15T00:38:41;9.10;1.00
21193;DHT22;10754;51.106;7.164;2023-02-15T00:41:08;9.10;1.00
21193;DHT22;10754;51.106;7.164;2023-02-15T00:43:35;9.00;1.00
21193;DHT22;10754;51.106;7.164;2023-02-15T00:46:02;9.00;1.00
21193;DHT22;10754;51.106;7.164;2023-02-15T00:48:28;9.10;1.00
21193;DHT22;10754;51.106;7.164;2023-02-15T00:50:56;9.10;1.00
21193;DHT22;10754;51.106;7.164;2023-02-15T00:53:22;9.00;1.00
21193;DHT22;10754;51.106;7.164;2023-02-15T00:55:48;9.10;1.00
21193;DHT22;10754;51.106;7.164;2023-02-15T00:58:15;9.10;1.00
21193;DHT22;10754;51.106;7.164;2023-02-15T01:00:43;9.00;1.00
21193;DHT22;10754;51.106;7.164;2023-02-15T01:03:09;9.10;1.00
21193;DHT22;10754;51.106;7.164;2023-02-15T01:05:35;9.00;1.00
21193;DHT22;10754;51.106;7.164;2023-02-15T01:08:00;9.00;1.00
21193;DHT22;10754;51.106;7.164;2023-02-15T01:10:27;9.00;1.00
21193;DHT22;10754;51.106;7.164;2023-02-15T01:12:53;9.00;1.00
21193;DHT22;10754;51.106;7.164;2023-02-15T01:15:19;9.00;1.00
21193;DHT22;10754;51.106;7.164;2023-02-15T01:17:45;9.00;1.00
21193;DHT22;10754;51.106;7.164;2023-02-15T01:20:17;9.00;1.00
21193;DHT22;10754;51.106;7.164;2023-02-15T01:22:42;9.00;1.00
21193;DHT22;10754;51.106;7.164;2023-02-15T01:25:08;9.10;1.00
21193;DHT22;10754;51.106;7.164;2023-02-15T01:27:33;9.10;1.00
21193;DHT22;10754;51.106;7.164;2023-02-15T01:29:59;9.00;1.00
21193;DHT22;10754;51.106;7.164;2023-02-15T01:32:25;9.00;1.00
21193;DHT22;10754;51.106;7.164;2023-02-15T01:34:52;9.00;1.00
21193;DHT22;10754;51.106;7.164;2023-02-15T01:37:18;9.00;1.00
21193;DHT22;10754;51.106;7.164;2023-02-15T01:39:44;9.00;1.00
21193;DHT22;10754;51.106;7.164;2023-02-15T01:42:10;9.10;1.00
21193;DHT22;10754;51.106;7.164;2023-02-15T01:44:54;9.10;1.00
21193;DHT22;10754;51.106;7.164;2023-02-15T01:50:26;9.00;1.00
21193;DHT22;10754;51.106;7.164;2023-02-15T01:55:23;8.90;1.00
21193;DHT22;10754;51.106;7.164;2023-02-15T01:57:51;8.90;1.00
21193;DHT22;10754;51.106;7.164;2023-02-15T02:00:17;8.90;1.00
21193;DHT22;10754;51.106;7.164;2023-02-15T02:02:45;8.90;1.00
21193;DHT22;10754;51.106;7.164;2023-02-15T02:05:13;8.90;1.00
21193;DHT22;10754;51.106;7.164;2023-02-15T02:07:42;8.90;1.00
21193;DHT22;10754;51.106;7.164;2023-02-15T02:10:15;8.90;1.00
21193;DHT22;10754;51.106;7.164;2023-02-15T02:12:43;8.90;1.00
21193;DHT22;10754;51.106;7.164;2023-02-15T02:15:10;8.90;1.00
21193;DHT22;10754;51.106;7.164;2023-02-15T02:20:52;8.90;1.00
21193;DHT22;10754;51.106;7.164;2023-02-15T02:23:43;8.90;1.00
21193;DHT22;10754;51.106;7.164;2023-02-15T02:29:10;8.80;1.00
21193;DHT22;10754;51.106;7.164;2023-02-15T02:34:33;8.80;1.00
21193;DHT22;10754;51.106;7.164;2023-02-15T02:37:20;8.80;1.00
21193;DHT22;10754;51.106;7.164;2023-02-15T02:40:09;8.80;1.00
21193;DHT22;10754;51.106;7.164;2023-02-15T02:42:44;8.80;1.00
21193;DHT22;10754;51.106;7.164;2023-02-15T02:45:26;8.90;1.00
21193;DHT22;10754;51.106;7.164;2023-02-15T02:47:59;8.90;1.00
21193;DHT22;10754;51.106;7.164;2023-02-15T02:50:27;8.80;1.00
21193;DHT22;10754;51.106;7.164;2023-02-15T02:52:55;8.80;1.00
21193;DHT22;10754;51.106;7.164;2023-02-15T02:55:31;8.80;1.00
21193;DHT22;10754;51.106;7.164;2023-02-15T02:58:18;8.70;1.00
21193;DHT22;10754;51.106;7.164;2023-02-15T03:00:50;8.70;1.00
21193;DHT22;10754;51.106;7.164;2023-02-15T03:03:27;8.60;1.00
21193;DHT22;10754;51.106;7.164;2023-02-15T03:05:57;8.60;1.00
21193;DHT22;10754;51.106;7.164;2023-02-15T03:08:27;8.60;1.00
21193;DHT22;10754;51.106;7.164;2023-02-15T03:10:58;8.50;1.00
21193;DHT22;10754;51.106;7.164;2023-02-15T03:13:24;8.50;1.00
21193;DHT22;10754;51.106;7.164;2023-02-15T03:15:51;8.50;1.00
21193;DHT22;10754;51.106;7.164;2023-02-15T03:18:41;8.50;1.00
21193;DHT22;10754;51.106;7.164;2023-02-15T03:21:08;8.60;1.00
21193;DHT22;10754;51.106;7.164;2023-02-15T03:23:36;8.50;1.00
21193;DHT22;10754;51.106;7.164;2023-02-15T03:26:05;8.50;1.00
21193;DHT22;10754;51.106;7.164;2023-02-15T03:28:38;8.50;1.00
21193;DHT22;10754;51.106;7.164;2023-02-15T03:31:07;8.50;1.00
21193;DHT22;10754;51.106;7.164;2023-02-15T03:33:36;8.50;1.00
21193;DHT22;10754;51.106;7.164;2023-02-15T03:36:14;8.50;1.00
21193;DHT22;10754;51.106;7.164;2023-02-15T03:42:26;8.50;1.00
21193;DHT22;10754;51.106;7.164;2023-02-15T03:47:31;8.50;1.00
21193;DHT22;10754;51.106;7.164;2023-02-15T03:50:02;8.40;1.00
21193;DHT22;10754;51.106;7.164;2023-02-15T03:52:30;8.40;1.00
21193;DHT22;10754;51.106;7.164;2023-02-15T03:54:57;8.40;1.00
21193;DHT22;10754;51.106;7.164;2023-02-15T03:57:27;8.40;1.00
21193;DHT22;10754;51.106;7.164;2023-02-15T04:00:26;8.40;1.00
21193;DHT22;10754;51.106;7.164;2023-02-15T04:06:10;8.50;1.00
21193;DHT22;10754;51.106;7.164;2023-02-15T04:08:36;8.50;1.00
21193;DHT22;10754;51.106;7.164;2023-02-15T04:11:20;8.50;1.00
21193;DHT22;10754;51.106;7.164;2023-02-15T04:13:46;8.40;1.00
21193;DHT22;10754;51.106;7.164;2023-02-15T04:16:11;8.40;1.00
21193;DHT22;10754;51.106;7.164;2023-02-15T04:18:42;8.40;1.00
21193;DHT22;10754;51.106;7.164;2023-02-15T04:21:28;8.40;1.00
21193;DHT22;10754;51.106;7.164;2023-02-15T04:24:13;8.40;1.00
21193;DHT22;10754;51.106;7.164;2023-02-15T04:26:58;8.40;1.00
21193;DHT22;10754;51.106;7.164;2023-02-15T04:29:25;8.40;1.00
21193;DHT22;10754;51.106;7.164;2023-02-15T04:31:51;8.40;1.00
21193;DHT22;10754;51.106;7.164;2023-02-15T04:34:17;8.40;1.00
21193;DHT22;10754;51.106;7.164;2023-02-15T04:36:43;8.40;1.00
21193;DHT22;10754;51.106;7.164;2023-02-15T04:39:09;8.40;1.00
21193;DHT22;10754;51.106;7.164;2023-02-15T04:41:35;8.40;1.00
21193;DHT22;10754;51.106;7.164;2023-02-15T04:44:01;8.40;1.00
21193;DHT22;10754;51.106;7.164;2023-02-15T04:46:27;8.40;1.00
21193;DHT22;10754;51.106;7.164;2023-02-15T04:48:53;8.30;1.00
21193;DHT22;10754;51.106;7.164;2023-02-15T04:51:19;8.30;1.00
21193;DHT22;10754;51.106;7.164;2023-02-15T04:53:44;8.20;1.00
21193;DHT22;10754;51.106;7.164;2023-02-15T04:56:10;8.20;1.00
21193;DHT22;10754;51.106;7.164;2023-02-15T04:58:36;8.10;1.00
21193;DHT22;10754;51.106;7.164;2023-02-15T05:01:02;8.10;1.00
21193;DHT22;10754;51.106;7.164;2023-02-15T05:03:28;8.10;1.00
21193;DHT22;10754;51.106;7.164;2023-02-15T05:05:53;8.20;1.00
21193;DHT22;10754;51.106;7.164;2023-02-15T05:08:19;8.20;1.00
21193;DHT22;10754;51.106;7.164;2023-02-15T05:10:47;8.20;1.00
21193;DHT22;10754;51.106;7.164;2023-02-15T05:13:12;8.20;1.00
21193;DHT22;10754;51.106;7.164;2023-02-15T05:15:38;8.20;1.00
21193;DHT22;10754;51.106;7.164;2023-02-15T05:18:03;8.20;1.00
21193;DHT22;10754;51.106;7.164;2023-02-15T05:20:29;8.10;1.00
21193;DHT22;10754;51.106;7.164;2023-02-15T05:22:54;8.10;1.00
21193;DHT22;10754;51.106;7.164;2023-02-15T05:25:20;8.10;1.00
21193;DHT22;10754;51.106;7.164;2023-02-15T05:28:04;8.10;1.00
21193;DHT22;10754;51.106;7.164;2023-02-15T05:30:49;8.10;1.00
21193;DHT22;10754;51.106;7.164;2023-02-15T05:33:15;8.00;1.00
21193;DHT22;10754;51.106;7.164;2023-02-15T05:35:40;8.00;1.00
21193;DHT22;10754;51.106;7.164;2023-02-15T05:38:06;8.10;1.00
21193;DHT22;10754;51.106;7.164;2023-02-15T05:40:32;8.10;1.00
21193;DHT22;10754;51.106;7.164;2023-02-15T05:42:58;8.20;1.00
21193;DHT22;10754;51.106;7.164;2023-02-15T05:45:23;8.10;1.00
21193;DHT22;10754;51.106;7.164;2023-02-15T05:47:49;8.10;1.00
21193;DHT22;10754;51.106;7.164;2023-02-15T05:50:15;8.00;1.00
21193;DHT22;10754;51.106;7.164;2023-02-15T05:52:40;8.00;1.00
21193;DHT22;10754;51.106;7.164;2023-02-15T05:55:06;7.90;1.00
21193;DHT22;10754;51.106;7.164;2023-02-15T05:57:34;7.90;1.00
21193;DHT22;10754;51.106;7.164;2023-02-15T06:00:00;7.90;1.00
21193;DHT22;10754;51.106;7.164;2023-02-15T06:02:25;7.80;1.00
21193;DHT22;10754;51.106;7.164;2023-02-15T06:04:51;7.80;1.00
21193;DHT22;10754;51.106;7.164;2023-02-15T06:07:16;7.80;1.00
21193;DHT22;10754;51.106;7.164;2023-02-15T06:09:42;7.80;1.00
21193;DHT22;10754;51.106;7.164;2023-02-15T06:12:07;7.90;1.00
21193;DHT22;10754;51.106;7.164;2023-02-15T06:14:33;7.80;1.00
21193;DHT22;10754;51.106;7.164;2023-02-15T06:16:58;7.80;1.00
21193;DHT22;10754;51.106;7.164;2023-02-15T06:19:24;7.80;1.00
21193;DHT22;10754;51.106;7.164;2023-02-15T06:21:49;7.80;1.00
21193;DHT22;10754;51.106;7.164;2023-02-15T06:24:15;7.80;1.00
21193;DHT22;10754;51.106;7.164;2023-02-15T06:26:40;7.90;1.00
21193;DHT22;10754;51.106;7.164;2023-02-15T06:29:06;7.90;1.00
21193;DHT22;10754;51.106;7.164;2023-02-15T06:31:31;7.70;1.00
21193;DHT22;10754;51.106;7.164;2023-02-15T06:33:57;7.70;1.00
21193;DHT22;10754;51.106;7.164;2023-02-15T06:36:27;7.70;1.00
21193;DHT22;10754;51.106;7.164;2023-02-15T06:38:54;7.60;1.00
21193;DHT22;10754;51.106;7.164;2023-02-15T06:41:19;7.60;1.00
21193;DHT22;10754;51.106;7.164;2023-02-15T06:43:45;7.60;1.00
21193;DHT22;10754;51.106;7.164;2023-02-15T06:46:10;7.70;1.00
21193;DHT22;10754;51.106;7.164;2023-02-15T06:48:36;7.60;1.00
21193;DHT22;10754;51.106;7.164;2023-02-15T06:51:01;7.60;1.00
21193;DHT22;10754;51.106;7.164;2023-02-15T06:53:26;7.60;1.00
21193;DHT22;10754;51.106;7.164;2023-02-15T06:55:52;7.60;1.00
21193;DHT22;10754;51.106;7.164;2023-02-15T06:58:17;7.60;1.00
21193;DHT22;10754;51.106;7.164;2023-02-15T07:00:43;7.60;1.00
21193;DHT22;10754;51.106;7.164;2023-02-15T07:03:08;7.60;1.00
21193;DHT22;10754;51.106;7.164;2023-02-15T07:05:34;7.60;1.00
21193;DHT22;10754;51.106;7.164;2023-02-15T07:08:00;7.60;1.00
21193;DHT22;10754;51.106;7.164;2023-02-15T07:10:27;7.50;1.00
21193;DHT22;10754;51.106;7.164;2023-02-15T07:12:53;7.60;1.00
21193;DHT22;10754;51.106;7.164;2023-02-15T07:15:19;7.60;1.00
21193;DHT22;10754;51.106;7.164;2023-02-15T07:17:48;7.50;1.00
21193;DHT22;10754;51.106;7.164;2023-02-15T07:20:19;7.60;1.00
21193;DHT22;10754;51.106;7.164;2023-02-15T07:22:45;7.60;1.00
21193;DHT22;10754;51.106;7.164;2023-02-15T07:25:11;7.70;1.00
21193;DHT22;10754;51.106;7.164;2023-02-15T07:27:38;7.70;1.00
21193;DHT22;10754;51.106;7.164;2023-02-15T07:30:05;7.70;1.00
21193;DHT22;10754;51.106;7.164;2023-02-15T07:32:31;7.70;1.00
21193;DHT22;10754;51.106;7.164;2023-02-15T07:34:58;7.70;1.00
21193;DHT22;10754;51.106;7.164;2023-02-15T07:37:24;7.70;1.00
21193;DHT22;10754;51.106;7.164;2023-02-15T07:39:49;7.80;1.00
21193;DHT22;10754;51.106;7.164;2023-02-15T07:42:15;7.80;1.00
21193;DHT22;10754;51.106;7.164;2023-02-15T07:44:40;7.80;1.00
21193;DHT22;10754;51.106;7.164;2023-02-15T07:47:06;7.90;1.00
21193;DHT22;10754;51.106;7.164;2023-02-15T07:49:32;7.90;1.00
21193;DHT22;10754;51.106;7.164;2023-02-15T07:51:57;7.80;1.00
21193;DHT22;10754;51.106;7.164;2023-02-15T07:54:23;7.90;1.00
21193;DHT22;10754;51.106;7.164;2023-02-15T07:56:48;8.00;1.00
21193;DHT22;10754;51.106;7.164;2023-02-15T07:59:14;8.00;1.00
21193;DHT22;10754;51.106;7.164;2023-02-15T08:01:39;8.10;1.00
21193;DHT22;10754;51.106;7.164;2023-02-15T08:04:06;8.00;1.00
21193;DHT22;10754;51.106;7.164;2023-02-15T08:06:34;8.00;1.00
21193;DHT22;10754;51.106;7.164;2023-02-15T08:09:00;8.10;1.00
21193;DHT22;10754;51.106;7.164;2023-02-15T08:11:30;8.10;1.00
21193;DHT22;10754;51.106;7.164;2023-02-15T08:14:17;8.30;1.00
21193;DHT22;10754;51.106;7.164;2023-02-15T08:16:51;8.40;1.00
21193;DHT22;10754;51.106;7.164;2023-02-15T08:19:22;8.40;1.00
21193;DHT22;10754;51.106;7.164;2023-02-15T08:22:00;8.40;1.00
21193;DHT22;10754;51.106;7.164;2023-02-15T08:24:27;8.30;1.00
21193;DHT22;10754;51.106;7.164;2023-02-15T08:26:54;8.30;1.00
21193;DHT22;10754;51.106;7.164;2023-02-15T08:29:22;8.40;1.00
21193;DHT22;10754;51.106;7.164;2023-02-15T08:31:48;8.40;1.00
21193;DHT22;10754;51.106;7.164;2023-02-15T08:34:16;8.40;1.00
21193;DHT22;10754;51.106;7.164;2023-02-15T08:36:41;8.50;1.00
21193;DHT22;10754;51.106;7.164;2023-02-15T08:39:07;8.60;1.00
21193;DHT22;10754;51.106;7.164;2023-02-15T08:41:37;8.70;1.00
21193;DHT22;10754;51.106;7.164;2023-02-15T08:44:05;8.80;1.00
21193;DHT22;10754;51.106;7.164;2023-02-15T08:46:34;9.00;1.00
21193;DHT22;10754;51.106;7.164;2023-02-15T08:49:00;9.10;1.00
21193;DHT22;10754;51.106;7.164;2023-02-15T08:51:32;9.10;1.00
21193;DHT22;10754;51.106;7.164;2023-02-15T08:54:00;9.30;1.00
21193;DHT22;10754;51.106;7.164;2023-02-15T08:56:28;9.20;1.00
21193;DHT22;10754;51.106;7.164;2023-02-15T08:58:55;9.40;1.00
21193;DHT22;10754;51.106;7.164;2023-02-15T09:01:23;9.60;1.00
21193;DHT22;10754;51.106;7.164;2023-02-15T09:03:51;9.70;1.00
21193;DHT22;10754;51.106;7.164;2023-02-15T09:06:21;9.70;1.00
21193;DHT22;10754;51.106;7.164;2023-02-15T09:08:48;9.90;1.00
21193;DHT22;10754;51.106;7.164;2023-02-15T09:11:16;9.90;1.00
21193;DHT22;10754;51.106;7.164;2023-02-15T09:13:49;9.80;1.00
21193;DHT22;10754;51.106;7.164;2023-02-15T09:16:15;10.10;1.00
21193;DHT22;10754;51.106;7.164;2023-02-15T09:18:42;10.10;1.00
21193;DHT22;10754;51.106;7.164;2023-02-15T09:21:12;10.30;1.00
21193;DHT22;10754;51.106;7.164;2023-02-15T09:23:43;10.40;1.00
21193;DHT22;10754;51.106;7.164;2023-02-15T09:26:14;10.60;1.00
21193;DHT22;10754;51.106;7.164;2023-02-15T09:28:40;10.40;1.00
21193;DHT22;10754;51.106;7.164;2023-02-15T09:33:34;10.40;1.00
21193;DHT22;10754;51.106;7.164;2023-02-15T09:36:00;10.60;1.00
21193;DHT22;10754;51.106;7.164;2023-02-15T09:38:26;10.70;1.00
21193;DHT22;10754;51.106;7.164;2023-02-15T09:43:50;10.90;1.00
21193;DHT22;10754;51.106;7.164;2023-02-15T09:46:44;11.00;1.00
21193;DHT22;10754;51.106;7.164;2023-02-15T09:49:42;11.10;1.00
21193;DHT22;10754;51.106;7.164;2023-02-15T10:03:36;11.60;1.00
21193;DHT22;10754;51.106;7.164;2023-02-15T10:06:22;11.80;1.00
21193;DHT22;10754;51.106;7.164;2023-02-15T10:09:10;11.60;1.00
21193;DHT22;10754;51.106;7.164;2023-02-15T10:14:29;11.70;1.00
21193;DHT22;10754;51.106;7.164;2023-02-15T10:25:43;12.20;1.00
21193;DHT22;10754;51.106;7.164;2023-02-15T10:28:17;12.30;1.00
21193;DHT22;10754;51.106;7.164;2023-02-15T10:30:48;12.70;1.00
21193;DHT22;10754;51.106;7.164;2023-02-15T10:33:26;12.70;1.00
21193;DHT22;10754;51.106;7.164;2023-02-15T10:39:26;13.30;99.90
21193;DHT22;10754;51.106;7.164;2023-02-15T10:44:50;13.60;99.90
21193;DHT22;10754;51.106;7.164;2023-02-15T10:47:45;13.90;99.90
21193;DHT22;10754;51.106;7.164;2023-02-15T10:50:24;14.10;99.90
21193;DHT22;10754;51.106;7.164;2023-02-15T10:56:24;14.50;99.90
21193;DHT22;10754;51.106;7.164;2023-02-15T11:01:45;14.80;99.90
21193;DHT22;10754;51.106;7.164;2023-02-15T11:06:57;15.20;99.90
21193;DHT22;10754;51.106;7.164;2023-02-15T11:09:28;15.60;99.90
21193;DHT22;10754;51.106;7.164;2023-02-15T11:11:56;15.90;99.90
21193;DHT22;10754;51.106;7.164;2023-02-15T11:17:06;16.20;99.90
21193;DHT22;10754;51.106;7.164;2023-02-15T11:19:51;16.50;99.90
21193;DHT22;10754;51.106;7.164;2023-02-15T11:22:19;16.90;99.90
21193;DHT22;10754;51.106;7.164;2023-02-15T11:24:46;17.30;99.90
21193;DHT22;10754;51.106;7.164;2023-02-15T11:29:41;18.10;99.90
21193;DHT22;10754;51.106;7.164;2023-02-15T11:32:19;18.50;99.90
21193;DHT22;10754;51.106;7.164;2023-02-15T11:35:03;18.70;99.90
21193;DHT22;10754;51.106;7.164;2023-02-15T11:37:41;19.00;99.90
21193;DHT22;10754;51.106;7.164;2023-02-15T11:42:49;19.90;99.90
21193;DHT22;10754;51.106;7.164;2023-02-15T11:45:32;20.30;99.90
21193;DHT22;10754;51.106;7.164;2023-02-15T11:48:00;20.70;99.90
21193;DHT22;10754;51.106;7.164;2023-02-15T11:50:28;21.10;99.90
21193;DHT22;10754;51.106;7.164;2023-02-15T11:53:03;21.30;99.90
21193;DHT22;10754;51.106;7.164;2023-02-15T11:55:30;21.70;99.90
21193;DHT22;10754;51.106;7.164;2023-02-15T12:00:52;22.40;99.90
21193;DHT22;10754;51.106;7.164;2023-02-15T12:03:40;23.00;99.90
21193;DHT22;10754;51.106;7.164;2023-02-15T12:06:15;23.40;99.90
21193;DHT22;10754;51.106;7.164;2023-02-15T12:08:46;23.50;99.90
21193;DHT22;10754;51.106;7.164;2023-02-15T12:11:25;23.70;99.90
21193;DHT22;10754;51.106;7.164;2023-02-15T12:14:02;24.00;99.90
21193;DHT22;10754;51.106;7.164;2023-02-15T12:16:29;24.40;99.90
21193;DHT22;10754;51.106;7.164;2023-02-15T12:18:59;24.50;99.90
21193;DHT22;10754;51.106;7.164;2023-02-15T12:21:39;24.70;99.90
21193;DHT22;10754;51.106;7.164;2023-02-15T12:24:30;24.80;99.90
21193;DHT22;10754;51.106;7.164;2023-02-15T12:29:42;25.30;99.90
21193;DHT22;10754;51.106;7.164;2023-02-15T12:32:33;25.40;99.90
21193;DHT22;10754;51.106;7.164;2023-02-15T12:35:09;25.60;99.90
21193;DHT22;10754;51.106;7.164;2023-02-15T12:37:38;25.60;99.90
21193;DHT22;10754;51.106;7.164;2023-02-15T12:40:30;25.60;99.90
21193;DHT22;10754;51.106;7.164;2023-02-15T12:42:56;25.90;99.90
21193;DHT22;10754;51.106;7.164;2023-02-15T12:45:31;26.00;99.90
21193;DHT22;10754;51.106;7.164;2023-02-15T12:50:44;26.10;99.90
21193;DHT22;10754;51.106;7.164;2023-02-15T12:53:17;26.00;99.90
21193;DHT22;10754;51.106;7.164;2023-02-15T12:55:55;25.90;99.90
21193;DHT22;10754;51.106;7.164;2023-02-15T12:58:23;25.80;99.90
21193;DHT22;10754;51.106;7.164;2023-02-15T13:01:04;25.80;99.90
21193;DHT22;10754;51.106;7.164;2023-02-15T13:03:35;25.70;99.90
21193;DHT22;10754;51.106;7.164;2023-02-15T13:06:02;25.60;99.90
21193;DHT22;10754;51.106;7.164;2023-02-15T13:08:34;25.50;99.90
21193;DHT22;10754;51.106;7.164;2023-02-15T13:11:07;25.30;99.90
21193;DHT22;10754;51.106;7.164;2023-02-15T13:13:45;25.20;99.90
21193;DHT22;10754;51.106;7.164;2023-02-15T13:16:13;25.00;99.90
21193;DHT22;10754;51.106;7.164;2023-02-15T13:18:44;24.50;99.90
21193;DHT22;10754;51.106;7.164;2023-02-15T13:21:13;24.00;99.90
21193;DHT22;10754;51.106;7.164;2023-02-15T13:23:44;23.70;99.90
21193;DHT22;10754;51.106;7.164;2023-02-15T13:26:15;23.60;99.90
21193;DHT22;10754;51.106;7.164;2023-02-15T13:28:46;23.20;99.90
21193;DHT22;10754;51.106;7.164;2023-02-15T13:31:18;22.60;99.90
21193;DHT22;10754;51.106;7.164;2023-02-15T13:34:00;22.00;99.90
21193;DHT22;10754;51.106;7.164;2023-02-15T13:39:31;21.90;99.90
21193;DHT22;10754;51.106;7.164;2023-02-15T13:42:10;21.90;99.90
21193;DHT22;10754;51.106;7.164;2023-02-15T13:50:52;20.70;99.90
21193;DHT22;10754;51.106;7.164;2023-02-15T13:59:12;20.50;99.90
21193;DHT22;10754;51.106;7.164;2023-02-15T14:01:45;20.20;99.90
21193;DHT22;10754;51.106;7.164;2023-02-15T14:26:17;18.50;99.90
21193;DHT22;10754;51.106;7.164;2023-02-15T14:31:42;18.00;99.90
21193;DHT22;10754;51.106;7.164;2023-02-15T14:34:25;17.80;99.90
21193;DHT22;10754;51.106;7.164;2023-02-15T14:36:53;17.80;99.90
21193;DHT22;10754;51.106;7.164;2023-02-15T14:39:31;17.80;99.90
21193;DHT22;10754;51.106;7.164;2023-02-15T14:45:13;17.80;99.90
21193;DHT22;10754;51.106;7.164;2023-02-15T14:47:46;17.70;99.90
21193;DHT22;10754;51.106;7.164;2023-02-15T14:53:37;17.40;99.90
21193;DHT22;10754;51.106;7.164;2023-02-15T14:58:55;17.30;99.90
21193;DHT22;10754;51.106;7.164;2023-02-15T15:01:32;17.50;99.90
21193;DHT22;10754;51.106;7.164;2023-02-15T15:07:42;17.40;99.90
21193;DHT22;10754;51.106;7.164;2023-02-15T15:10:04;17.30;99.90
21193;DHT22;10754;51.106;7.164;2023-02-15T15:12:43;17.20;99.90
21193;DHT22;10754;51.106;7.164;2023-02-15T15:15:37;17.10;99.90
21193;DHT22;10754;51.106;7.164;2023-02-15T15:37:02;16.40;99.90
21193;DHT22;10754;51.106;7.164;2023-02-15T15:45:34;16.00;99.90
21193;DHT22;10754;51.106;7.164;2023-02-15T15:50:52;15.90;99.90
21193;DHT22;10754;51.106;7.164;2023-02-15T15:53:21;15.90;99.90
21193;DHT22;10754;51.106;7.164;2023-02-15T15:55:52;15.90;99.90
21193;DHT22;10754;51.106;7.164;2023-02-15T15:58:19;15.90;99.90
21193;DHT22;10754;51.106;7.164;2023-02-15T16:00:54;15.70;99.90
21193;DHT22;10754;51.106;7.164;2023-02-15T16:03:26;15.50;99.90
21193;DHT22;10754;51.106;7.164;2023-02-15T16:05:52;15.50;99.90
21193;DHT22;10754;51.106;7.164;2023-02-15T16:10:52;15.20;99.90
21193;DHT22;10754;51.106;7.164;2023-02-15T16:13:18;15.10;99.90
21193;DHT22;10754;51.106;7.164;2023-02-15T16:15:46;15.10;99.90
21193;DHT22;10754;51.106;7.164;2023-02-15T16:18:16;15.00;99.90
21193;DHT22;10754;51.106;7.164;2023-02-15T16:20:58;15.00;99.90
21193;DHT22;10754;51.106;7.164;2023-02-15T16:28:52;14.60;99.90
21193;DHT22;10754;51.106;7.164;2023-02-15T16:31:17;14.50;99.90
21193;DHT22;10754;51.106;7.164;2023-02-15T16:33:44;14.50;99.90
21193;DHT22;10754;51.106;7.164;2023-02-15T16:36:12;14.50;99.90
21193;DHT22;10754;51.106;7.164;2023-02-15T16:38:55;14.30;99.90
21193;DHT22;10754;51.106;7.164;2023-02-15T16:41:30;14.30;99.90
21193;DHT22;10754;51.106;7.164;2023-02-15T16:44:07;14.20;99.90
21193;DHT22;10754;51.106;7.164;2023-02-15T16:46:37;14.20;99.90
21193;DHT22;10754;51.106;7.164;2023-02-15T16:49:18;14.10;99.90
21193;DHT22;10754;51.106;7.164;2023-02-15T16:51:45;14.10;99.90
21193;DHT22;10754;51.106;7.164;2023-02-15T16:54:21;14.10;99.90
21193;DHT22;10754;51.106;7.164;2023-02-15T16:56:47;14.00;99.90
21193;DHT22;10754;51.106;7.164;2023-02-15T17:01:48;14.00;99.90
21193;DHT22;10754;51.106;7.164;2023-02-15T17:04:28;13.90;99.90
21193;DHT22;10754;51.106;7.164;2023-02-15T17:07:15;14.00;99.90
21193;DHT22;10754;51.106;7.164;2023-02-15T17:09:52;13.90;99.90
21193;DHT22;10754;51.106;7.164;2023-02-15T17:12:52;13.90;99.90
21193;DHT22;10754;51.106;7.164;2023-02-15T17:18:24;13.70;99.90
21193;DHT22;10754;51.106;7.164;2023-02-15T17:20:50;13.70;99.90
21193;DHT22;10754;51.106;7.164;2023-02-15T17:26:20;13.50;99.90
21193;DHT22;10754;51.106;7.164;2023-02-15T17:28:49;13.50;99.90
21193;DHT22;10754;51.106;7.164;2023-02-15T17:31:17;13.40;99.90
21193;DHT22;10754;51.106;7.164;2023-02-15T17:33:43;13.40;99.90
21193;DHT22;10754;51.106;7.164;2023-02-15T17:36:18;13.20;99.90
21193;DHT22;10754;51.106;7.164;2023-02-15T17:39:12;13.20;1.40
21193;DHT22;10754;51.106;7.164;2023-02-15T17:41:43;13.20;1.00
21193;DHT22;10754;51.106;7.164;2023-02-15T17:44:09;13.00;1.00
21193;DHT22;10754;51.106;7.164;2023-02-15T17:46:39;12.90;1.00
21193;DHT22;10754;51.106;7.164;2023-02-15T17:49:05;12.90;1.00
21193;DHT22;10754;51.106;7.164;2023-02-15T17:51:32;12.60;1.00
21193;DHT22;10754;51.106;7.164;2023-02-15T17:53:59;12.80;1.00
21193;DHT22;10754;51.106;7.164;2023-02-15T17:56:43;12.80;1.00
21193;DHT22;10754;51.106;7.164;2023-02-15T17:59:09;12.80;1.00
21193;DHT22;10754;51.106;7.164;2023-02-15T18:01:45;12.80;1.00
21193;DHT22;10754;51.106;7.164;2023-02-15T18:04:32;12.60;1.00
21193;DHT22;10754;51.106;7.164;2023-02-15T18:07:19;12.60;1.00
21193;DHT22;10754;51.106;7.164;2023-02-15T18:10:13;12.60;1.00
21193;DHT22;10754;51.106;7.164;2023-02-15T18:12:57;12.70;1.00
21193;DHT22;10754;51.106;7.164;2023-02-15T18:15:23;12.60;1.00
21193;DHT22;10754;51.106;7.164;2023-02-15T18:17:49;12.60;1.00
21193;DHT22;10754;51.106;7.164;2023-02-15T18:20:17;12.60;1.00
21193;DHT22;10754;51.106;7.164;2023-02-15T18:22:44;12.70;1.00
21193;DHT22;10754;51.106;7.164;2023-02-15T18:25:15;12.60;1.00
21193;DHT22;10754;51.106;7.164;2023-02-15T18:27:41;12.70;1.00
21193;DHT22;10754;51.106;7.164;2023-02-15T18:30:07;12.60;1.00
21193;DHT22;10754;51.106;7.164;2023-02-15T18:32:35;12.50;1.00
21193;DHT22;10754;51.106;7.164;2023-02-15T18:35:02;12.40;1.00
21193;DHT22;10754;51.106;7.164;2023-02-15T18:37:30;12.30;1.00
21193;DHT22;10754;51.106;7.164;2023-02-15T18:39:58;12.30;1.00
21193;DHT22;10754;51.106;7.164;2023-02-15T18:42:32;12.30;1.00
21193;DHT22;10754;51.106;7.164;2023-02-15T18:45:20;12.30;1.00
21193;DHT22;10754;51.106;7.164;2023-02-15T18:47:47;12.30;1.00
21193;DHT22;10754;51.106;7.164;2023-02-15T18:50:14;12.20;1.00
21193;DHT22;10754;51.106;7.164;2023-02-15T18:52:40;12.20;1.00
21193;DHT22;10754;51.106;7.164;2023-02-15T18:55:20;12.20;1.00
21193;DHT22;10754;51.106;7.164;2023-02-15T18:57:48;12.20;1.00
21193;DHT22;10754;51.106;7.164;2023-02-15T19:00:20;12.10;1.00
21193;DHT22;10754;51.106;7.164;2023-02-15T19:02:46;12.10;1.00
21193;DHT22;10754;51.106;7.164;2023-02-15T19:05:12;12.00;1.00
21193;DHT22;10754;51.106;7.164;2023-02-15T19:07:39;12.00;1.00
21193;DHT22;10754;51.106;7.164;2023-02-15T19:10:07;12.00;1.00
21193;DHT22;10754;51.106;7.164;2023-02-15T19:12:33;12.00;1.00